Time;durP1;ratioP1;P1;durP2;ratioP2;P2;SDS_P1;SDS_P2;PMS_P1;PMS_P2;Temp;Humidity;BMP_temperature;BMP_pressure;BME280_temperature;BME280_humidity;BME280_pressure;Samples;Min_cycle;Max_cycle;Signal;HPM_P1;HPM_P2
2022/01/05 00:01:15;;;;;;;2.67;2.53;;;2.20;1.00;;;;;;5013891;28;20200;-73
2022/01/05 00:03:40;;;;;;;10.43;2.40;;;2.30;1.00;;;;;;5013318;28;20180;-73
2022/01/05 00:06:06;;;;;;;5.70;2.27;;;2.30;1.00;;;;;;5012541;28;20180;-72
2022/01/05 00:08:31;;;;;;;1.63;1.53;;;2.20;1.00;;;;;;5012491;28;20183;-73
2022/01/05 00:10:57;;;;;;;1.93;1.77;;;2.30;1.00;;;;;;5013584;28;20214;-72
2022/01/05 00:13:23;;;;;;;2.10;1.90;;;2.20;1.00;;;;;;5013762;28;20169;-71
2022/01/05 00:15:48;;;;;;;12.83;1.97;;;2.30;1.00;;;;;;4996367;28;20223;-71
2022/01/05 00:18:14;;;;;;;1.87;1.30;;;2.30;1.00;;;;;;5013521;28;20517;-71
2022/01/05 00:20:40;;;;;;;2.90;1.67;;;2.30;1.00;;;;;;4995313;28;20671;-72
2022/01/05 00:23:05;;;;;;;1.50;1.40;;;2.30;1.00;;;;;;5013321;28;20172;-71
2022/01/05 00:25:31;;;;;;;1.50;1.40;;;2.30;1.00;;;;;;5013632;28;20148;-70
2022/01/05 00:27:56;;;;;;;7.83;2.73;;;2.30;1.00;;;;;;5013259;28;20636;-70
2022/01/05 00:30:22;;;;;;;1.80;1.70;;;2.30;1.00;;;;;;5012697;28;20214;-72
2022/01/05 00:32:48;;;;;;;1.83;1.73;;;2.30;1.00;;;;;;5013323;28;20203;-70
2022/01/05 00:35:13;;;;;;;2.77;2.57;;;2.30;1.00;;;;;;5013600;28;20226;-71
2022/01/05 00:37:40;;;;;;;1.97;1.87;;;2.20;1.00;;;;;;4995510;28;20235;-72
2022/01/05 00:40:06;;;;;;;3.95;2.50;;;2.20;1.00;;;;;;5012561;28;20184;-70
2022/01/05 00:42:32;;;;;;;3.45;3.25;;;2.20;1.00;;;;;;5013231;28;20239;-70
2022/01/05 00:44:58;;;;;;;3.28;2.97;;;2.20;1.00;;;;;;5013392;28;20637;-70
2022/01/05 00:47:24;;;;;;;3.07;2.10;;;2.20;1.00;;;;;;5013087;28;20199;-70
2022/01/05 00:49:50;;;;;;;1.70;1.60;;;2.20;1.00;;;;;;4995044;28;20439;-70
2022/01/05 00:52:16;;;;;;;2.33;2.20;;;2.20;1.00;;;;;;5012943;28;20531;-70
2022/01/05 00:54:41;;;;;;;4.40;2.43;;;2.30;1.00;;;;;;4995664;28;20177;-70
2022/01/05 00:57:08;;;;;;;3.00;2.23;;;2.30;1.00;;;;;;5012477;28;20497;-71
2022/01/05 00:59:33;;;;;;;1.98;1.77;;;2.40;1.00;;;;;;4994958;28;20180;-69
2022/01/05 01:01:59;;;;;;;2.27;2.13;;;2.30;1.00;;;;;;5012939;28;20185;-70
2022/01/05 01:04:24;;;;;;;4.10;2.53;;;2.30;1.00;;;;;;5013276;28;20215;-69
2022/01/05 01:06:50;;;;;;;3.33;2.70;;;2.40;1.00;;;;;;5012820;28;20633;-69
2022/01/05 01:09:17;;;;;;;1.90;1.80;;;2.30;1.00;;;;;;5012227;28;20173;-71
2022/01/05 01:11:42;;;;;;;1.80;1.70;;;2.30;1.00;;;;;;5012471;28;20196;-70
2022/01/05 01:14:09;;;;;;;3.00;1.90;;;2.30;1.00;;;;;;5013122;28;20194;-69
2022/01/05 01:16:34;;;;;;;7.38;2.10;;;2.30;1.00;;;;;;5012597;28;20669;-70
2022/01/05 01:19:00;;;;;;;2.20;2.10;;;2.40;1.00;;;;;;5015089;28;20186;-70
2022/01/05 01:21:26;;;;;;;1.60;1.50;;;2.40;1.00;;;;;;5016237;28;20200;-70
2022/01/05 01:23:57;;;;;;;2.37;1.70;;;2.40;1.00;;;;;;5016825;28;20179;-71
2022/01/05 01:26:27;;;;;;;2.35;2.22;;;2.50;1.00;;;;;;5015929;28;20776;-72
2022/01/05 01:28:54;;;;;;;2.40;1.97;;;2.50;1.00;;;;;;4997896;28;20772;-70
2022/01/05 01:31:20;;;;;;;2.78;2.58;;;2.40;1.00;;;;;;5016440;28;20566;-69
2022/01/05 01:33:46;;;;;;;6.18;1.75;;;2.50;1.00;;;;;;5016331;28;20181;-71
2022/01/05 01:36:12;;;;;;;2.15;2.05;;;2.50;1.00;;;;;;5016068;28;20207;-71
2022/01/05 01:38:38;;;;;;;4.25;2.13;;;2.40;1.00;;;;;;5015272;28;20184;-71
2022/01/05 01:41:04;;;;;;;2.30;2.10;;;2.40;1.00;;;;;;5016286;28;20514;-70
2022/01/05 01:43:30;;;;;;;3.53;1.80;;;2.50;1.00;;;;;;5015949;28;20399;-71
2022/01/05 01:45:56;;;;;;;16.83;2.57;;;2.40;1.00;;;;;;5016402;28;20173;-71
2022/01/05 01:48:21;;;;;;;1.60;1.50;;;2.40;1.00;;;;;;4998701;28;20438;-73
2022/01/05 01:50:47;;;;;;;1.97;1.87;;;2.40;1.00;;;;;;5014931;28;20200;-70
2022/01/05 01:53:13;;;;;;;2.50;2.30;;;2.40;1.00;;;;;;5016072;28;20172;-71
2022/01/05 01:55:39;;;;;;;1.40;1.30;;;2.30;1.00;;;;;;5015687;28;20230;-71
2022/01/05 01:58:06;;;;;;;2.03;1.80;;;2.30;1.00;;;;;;5016143;28;20168;-71
2022/01/05 02:00:32;;;;;;;4.07;3.10;;;2.30;1.00;;;;;;5014388;28;20470;-71
2022/01/05 02:02:57;;;;;;;2.10;1.90;;;2.30;1.00;;;;;;5015958;28;20408;-71
2022/01/05 02:05:23;;;;;;;2.90;2.13;;;2.20;1.00;;;;;;5015349;28;20183;-72
2022/01/05 02:07:49;;;;;;;2.75;1.80;;;2.20;1.00;;;;;;5015808;28;20200;-71
2022/01/05 02:10:15;;;;;;;5.40;2.30;;;2.20;1.00;;;;;;5014568;28;20680;-70
2022/01/05 02:12:41;;;;;;;1.80;1.70;;;2.20;1.00;;;;;;4998071;28;20633;-71
2022/01/05 02:15:08;;;;;;;1.77;1.67;;;2.20;1.00;;;;;;4998076;28;20198;-71
2022/01/05 02:17:47;;;;;;;4.50;2.50;;;2.20;1.00;;;;;;5015566;28;20508;-71
2022/01/05 02:20:21;;;;;;;3.63;2.00;;;2.20;1.00;;;;;;5014407;28;20235;-70
2022/01/05 02:22:47;;;;;;;1.85;1.75;;;2.20;1.00;;;;;;5015685;28;20533;-69
2022/01/05 02:25:13;;;;;;;6.05;2.05;;;2.20;1.00;;;;;;5015155;28;20255;-69
2022/01/05 02:27:40;;;;;;;1.80;1.70;;;2.20;1.00;;;;;;4997877;28;20577;-70
2022/01/05 02:30:08;;;;;;;1.70;1.60;;;2.20;1.00;;;;;;5013235;28;20486;-70
2022/01/05 02:32:34;;;;;;;1.92;1.83;;;2.10;1.00;;;;;;5015326;28;20173;-72
2022/01/05 02:34:59;;;;;;;3.87;3.57;;;2.20;1.00;;;;;;4997521;28;20184;-70
2022/01/05 02:37:25;;;;;;;1.80;1.70;;;2.20;1.00;;;;;;5015344;28;20235;-72
2022/01/05 02:39:50;;;;;;;1.50;1.40;;;2.20;1.00;;;;;;4996341;28;20583;-69
2022/01/05 02:42:29;;;;;;;4.93;1.80;;;2.20;1.00;;;;;;5015258;28;20164;-71
2022/01/05 02:44:56;;;;;;;1.85;1.75;;;2.10;1.00;;;;;;4997575;28;20202;-70
2022/01/05 02:47:22;;;;;;;1.90;1.80;;;2.20;1.00;;;;;;5015093;28;20176;-70
2022/01/05 02:49:48;;;;;;;3.73;2.80;;;2.20;1.00;;;;;;4996033;28;20180;-71
2022/01/05 02:52:15;;;;;;;3.07;1.87;;;2.20;1.00;;;;;;4996024;28;20431;-70
2022/01/05 02:54:43;;;;;;;7.22;1.80;;;2.20;1.00;;;;;;4995303;28;20168;-71
2022/01/05 02:57:08;;;;;;;1.88;1.77;;;2.20;1.00;;;;;;5008165;28;20293;-71
2022/01/05 02:59:34;;;;;;;6.53;2.00;;;2.10;1.00;;;;;;4996340;28;20251;-70
2022/01/05 03:02:00;;;;;;;2.10;2.00;;;2.20;1.00;;;;;;5014460;28;20633;-70
2022/01/05 03:04:26;;;;;;;1.90;1.80;;;2.20;1.00;;;;;;5014747;28;20173;-72
2022/01/05 03:06:52;;;;;;;2.88;2.65;;;2.20;1.00;;;;;;5014579;28;20172;-71
2022/01/05 03:09:18;;;;;;;5.28;2.90;;;2.10;1.00;;;;;;5013966;28;20595;-70
2022/01/05 03:11:44;;;;;;;1.60;1.50;;;2.20;1.00;;;;;;5014245;28;20680;-71
2022/01/05 03:14:10;;;;;;;2.00;1.90;;;2.20;1.00;;;;;;4996882;28;20212;-71
2022/01/05 03:16:36;;;;;;;3.67;2.53;;;2.20;1.00;;;;;;5014551;28;20218;-69
2022/01/05 03:19:02;;;;;;;1.70;1.60;;;2.20;1.00;;;;;;5013629;28;20643;-71
2022/01/05 03:21:28;;;;;;;2.00;1.90;;;2.20;1.00;;;;;;4996598;28;20226;-71
2022/01/05 03:23:54;;;;;;;2.60;2.40;;;2.20;1.00;;;;;;5014491;28;20195;-73
2022/01/05 03:26:19;;;;;;;3.67;2.23;;;2.10;1.00;;;;;;5014054;28;20196;-72
2022/01/05 03:28:45;;;;;;;6.30;2.40;;;2.10;1.00;;;;;;4995891;28;20199;-71
2022/01/05 03:31:10;;;;;;;4.10;1.97;;;2.10;1.00;;;;;;5014419;28;20195;-70
2022/01/05 03:33:36;;;;;;;3.30;2.70;;;2.20;1.00;;;;;;4996360;28;20548;-71
2022/01/05 03:36:03;;;;;;;1.60;1.50;;;2.20;1.00;;;;;;5014241;28;20196;-72
2022/01/05 03:38:30;;;;;;;3.42;1.88;;;2.20;1.00;;;;;;5013461;28;20173;-77
2022/01/05 03:40:56;;;;;;;7.00;2.13;;;2.20;1.00;;;;;;5013929;28;20652;-72
2022/01/05 03:43:22;;;;;;;1.90;1.80;;;2.20;1.00;;;;;;5013878;28;20655;-71
2022/01/05 03:45:48;;;;;;;1.93;1.83;;;2.20;1.00;;;;;;5014147;28;20271;-72
2022/01/05 03:48:15;;;;;;;1.90;1.80;;;2.20;1.00;;;;;;5013755;28;20164;-71
2022/01/05 03:50:41;;;;;;;2.15;1.40;;;2.30;1.00;;;;;;4995285;28;20289;-72
2022/01/05 03:53:08;;;;;;;2.40;2.20;;;2.40;1.00;;;;;;5013839;28;20661;-71
2022/01/05 03:55:35;;;;;;;2.47;2.38;;;2.40;1.00;;;;;;4995959;28;20263;-72
2022/01/05 03:58:01;;;;;;;9.23;2.50;;;2.50;1.00;;;;;;5013419;28;20641;-72
2022/01/05 04:00:29;;;;;;;2.07;1.87;;;2.50;1.00;;;;;;5012872;28;20467;-71
2022/01/05 04:02:56;;;;;;;3.40;2.95;;;2.50;1.00;;;;;;5013720;28;20183;-72
2022/01/05 04:05:22;;;;;;;2.10;2.00;;;2.50;1.00;;;;;;5013677;28;20187;-72
2022/01/05 04:07:49;;;;;;;8.37;2.23;;;2.50;1.00;;;;;;4995854;28;20763;-72
2022/01/05 04:10:15;;;;;;;13.50;2.55;;;2.50;1.00;;;;;;5012360;28;20192;-70
2022/01/05 04:12:42;;;;;;;1.70;1.60;;;2.60;1.00;;;;;;4995536;28;20203;-71
2022/01/05 04:15:08;;;;;;;4.40;2.30;;;2.50;1.00;;;;;;4996046;28;20695;-72
2022/01/05 04:17:34;;;;;;;1.85;1.75;;;2.50;1.00;;;;;;5013578;28;20298;-70
2022/01/05 04:20:00;;;;;;;2.35;1.92;;;2.60;1.00;;;;;;5012380;28;20242;-71
2022/01/05 04:22:26;;;;;;;6.63;3.00;;;2.60;1.00;;;;;;5013522;28;20176;-72
2022/01/05 04:24:52;;;;;;;2.40;1.80;;;2.60;1.00;;;;;;5013253;28;20176;-70
2022/01/05 04:27:19;;;;;;;3.30;3.03;;;2.60;1.00;;;;;;5013765;28;20180;-70
2022/01/05 04:29:44;;;;;;;3.42;2.10;;;2.50;1.00;;;;;;5012444;28;20176;-70
2022/01/05 04:32:10;;;;;;;1.90;1.80;;;2.50;1.00;;;;;;5013720;28;20246;-70
2022/01/05 04:34:36;;;;;;;4.33;2.10;;;2.50;1.00;;;;;;5013282;28;20177;-69
2022/01/05 04:37:02;;;;;;;2.30;2.10;;;2.40;1.00;;;;;;5013527;28;20635;-69
2022/01/05 04:39:27;;;;;;;2.60;2.40;;;2.30;1.00;;;;;;5012321;28;20200;-71
2022/01/05 04:41:53;;;;;;;1.80;1.70;;;2.30;1.00;;;;;;4996032;28;20419;-70
2022/01/05 04:44:19;;;;;;;2.07;1.97;;;2.30;1.00;;;;;;5013224;28;20184;-69
2022/01/05 04:46:44;;;;;;;4.70;2.43;;;2.20;1.00;;;;;;5013348;28;20180;-70
2022/01/05 04:49:10;;;;;;;4.03;2.67;;;2.20;1.00;;;;;;5012326;28;20575;-69
2022/01/05 04:51:35;;;;;;;5.13;1.67;;;2.10;1.00;;;;;;4995662;28;20255;-67
2022/01/05 04:54:01;;;;;;;2.83;2.63;;;2.10;1.00;;;;;;5016117;28;20270;-68
2022/01/05 04:56:27;;;;;;;2.00;1.90;;;2.00;1.00;;;;;;5017237;28;20200;-69
2022/01/05 04:58:52;;;;;;;2.27;1.80;;;2.10;1.00;;;;;;5015868;28;20187;-70
2022/01/05 05:01:18;;;;;;;2.07;1.97;;;2.10;1.00;;;;;;5017204;28;20187;-69
2022/01/05 05:03:44;;;;;;;1.87;1.77;;;2.10;1.00;;;;;;5016900;28;20205;-69
2022/01/05 05:06:09;;;;;;;1.63;1.53;;;2.10;1.00;;;;;;5017122;28;20184;-68
2022/01/05 05:08:35;;;;;;;2.00;1.90;;;2.10;1.00;;;;;;4998131;28;20207;-69
2022/01/05 05:11:00;;;;;;;2.00;1.90;;;2.10;1.00;;;;;;5016707;28;20198;-70
2022/01/05 05:13:26;;;;;;;1.87;1.77;;;2.10;1.00;;;;;;4998770;28;20183;-70
2022/01/05 05:15:52;;;;;;;2.73;2.50;;;2.10;1.00;;;;;;5016864;28;20180;-70
2022/01/05 05:18:17;;;;;;;1.70;1.60;;;2.10;1.00;;;;;;5016308;28;20267;-69
2022/01/05 05:20:43;;;;;;;1.90;1.70;;;2.20;1.00;;;;;;5015735;28;20241;-69
2022/01/05 05:23:08;;;;;;;3.30;2.20;;;2.20;1.00;;;;;;5016337;28;20180;-69
2022/01/05 05:25:34;;;;;;;2.23;2.03;;;2.20;1.00;;;;;;5016848;28;20519;-69
2022/01/05 05:28:00;;;;;;;2.03;1.70;;;2.30;1.00;;;;;;4998817;28;20188;-70
2022/01/05 05:30:25;;;;;;;1.93;1.83;;;2.30;1.00;;;;;;5015698;28;20296;-70
2022/01/05 05:32:54;;;;;;;1.53;1.43;;;2.30;1.00;;;;;;5016187;28;20172;-70
2022/01/05 05:35:21;;;;;;;2.75;1.70;;;2.30;1.00;;;;;;5016551;28;20287;-69
2022/01/05 05:37:47;;;;;;;1.80;1.70;;;2.40;1.00;;;;;;5016117;28;20227;-69
2022/01/05 05:40:12;;;;;;;1.77;1.67;;;2.40;1.00;;;;;;4998065;28;20649;-71
2022/01/05 05:42:38;;;;;;;1.80;1.70;;;2.50;1.00;;;;;;5016233;28;20181;-69
2022/01/05 05:45:05;;;;;;;3.43;1.93;;;2.60;1.00;;;;;;5016320;28;20395;-70
2022/01/05 05:47:30;;;;;;;2.40;2.20;;;2.60;1.00;;;;;;5015907;28;20724;-70
2022/01/05 05:49:56;;;;;;;2.17;1.97;;;2.70;1.00;;;;;;5015260;28;20200;-69
2022/01/05 05:52:21;;;;;;;1.80;1.70;;;2.70;1.00;;;;;;5015748;28;20188;-69
2022/01/05 05:54:47;;;;;;;1.97;1.80;;;2.70;1.00;;;;;;5016364;28;20179;-70
2022/01/05 05:57:13;;;;;;;2.80;2.23;;;2.70;1.00;;;;;;5015643;28;20211;-71
2022/01/05 05:59:38;;;;;;;2.73;2.63;;;2.80;1.00;;;;;;5015345;28;20232;-69
2022/01/05 06:02:04;;;;;;;1.80;1.70;;;2.90;1.00;;;;;;5015810;28;20632;-70
2022/01/05 06:04:29;;;;;;;2.13;2.03;;;2.90;1.00;;;;;;5016040;28;20187;-71
2022/01/05 06:06:55;;;;;;;2.27;2.17;;;2.80;1.00;;;;;;5015864;28;20176;-70
2022/01/05 06:09:21;;;;;;;2.43;2.17;;;2.80;1.00;;;;;;5014545;28;20258;-71
2022/01/05 06:11:46;;;;;;;2.53;2.33;;;2.80;1.00;;;;;;5015711;28;20207;-70
2022/01/05 06:14:12;;;;;;;3.37;2.67;;;2.80;1.00;;;;;;4997872;28;20176;-69
2022/01/05 06:16:38;;;;;;;3.67;2.67;;;2.80;1.00;;;;;;5015640;28;20199;-70
2022/01/05 06:19:03;;;;;;;6.30;2.57;;;2.90;1.00;;;;;;5014529;28;20231;-69
2022/01/05 06:21:29;;;;;;;2.53;1.80;;;2.90;1.00;;;;;;5015355;28;20205;-71
2022/01/05 06:23:54;;;;;;;1.80;1.70;;;2.90;1.00;;;;;;4997807;28;20180;-69
2022/01/05 06:26:21;;;;;;;3.90;2.23;;;2.90;1.00;;;;;;4998047;28;20176;-70
2022/01/05 06:28:47;;;;;;;6.00;2.13;;;2.90;1.00;;;;;;5014458;28;20263;-70
2022/01/05 06:31:13;;;;;;;1.93;1.80;;;2.90;1.00;;;;;;5015571;28;20510;-70
2022/01/05 06:33:38;;;;;;;2.10;2.00;;;2.80;1.00;;;;;;5014776;28;20430;-70
2022/01/05 06:36:04;;;;;;;1.93;1.83;;;2.90;1.00;;;;;;5015261;28;20530;-70
2022/01/05 06:38:31;;;;;;;1.87;1.77;;;2.90;1.00;;;;;;5014564;28;20185;-80
2022/01/05 06:40:58;;;;;;;2.37;2.20;;;2.90;1.00;;;;;;4981374;28;20431;-68
2022/01/05 06:43:25;;;;;;;1.90;1.80;;;2.90;1.00;;;;;;5015037;28;20419;-68
2022/01/05 06:45:53;;;;;;;1.90;1.80;;;2.90;1.00;;;;;;5015313;28;20453;-68
2022/01/05 06:48:18;;;;;;;1.65;1.55;;;2.90;1.00;;;;;;4981264;28;20430;-68
2022/01/05 06:50:44;;;;;;;3.97;1.80;;;3.00;1.00;;;;;;5013963;28;20200;-69
2022/01/05 06:53:09;;;;;;;1.70;1.60;;;3.00;1.00;;;;;;5015237;28;20176;-69
2022/01/05 06:55:35;;;;;;;1.90;1.80;;;3.00;1.00;;;;;;5014704;28;20172;-68
2022/01/05 06:58:01;;;;;;;1.87;1.77;;;3.00;1.00;;;;;;5014624;28;20208;-68
2022/01/05 07:00:28;;;;;;;1.77;1.67;;;2.90;1.00;;;;;;5013712;28;20279;-70
2022/01/05 07:02:53;;;;;;;2.00;1.90;;;2.90;1.00;;;;;;5014889;28;20751;-68
2022/01/05 07:05:20;;;;;;;1.90;1.80;;;2.90;1.00;;;;;;5014479;28;20507;-70
2022/01/05 07:07:46;;;;;;;2.27;2.17;;;2.80;1.00;;;;;;5014678;28;20564;-70
2022/01/05 07:10:11;;;;;;;3.03;2.60;;;2.80;1.00;;;;;;5013441;28;20438;-69
2022/01/05 07:12:38;;;;;;;4.40;1.70;;;2.80;1.00;;;;;;5014771;28;20168;-69
2022/01/05 07:15:05;;;;;;;3.13;2.83;;;2.80;1.00;;;;;;5013886;28;20173;-68
2022/01/05 07:17:30;;;;;;;2.07;1.97;;;2.80;1.00;;;;;;5014502;28;20486;-69
2022/01/05 07:19:56;;;;;;;1.97;1.87;;;2.80;1.00;;;;;;5013162;28;20890;-69
2022/01/05 07:22:22;;;;;;;2.37;2.10;;;2.70;1.00;;;;;;5015031;28;20163;-68
2022/01/05 07:24:47;;;;;;;4.63;2.37;;;2.70;1.00;;;;;;4996658;28;20645;-69
2022/01/05 07:27:13;;;;;;;1.63;1.53;;;2.70;1.00;;;;;;5014443;28;20663;-68
2022/01/05 07:29:39;;;;;;;2.43;2.20;;;2.70;1.00;;;;;;4996066;28;20164;-68
2022/01/05 07:32:05;;;;;;;1.90;1.80;;;2.70;1.00;;;;;;5014038;28;20180;-68
2022/01/05 07:34:31;;;;;;;1.75;1.65;;;2.80;1.00;;;;;;4996809;28;20172;-68
2022/01/05 07:36:56;;;;;;;3.57;2.23;;;2.80;1.00;;;;;;5014092;28;20577;-67
2022/01/05 07:39:22;;;;;;;2.10;2.00;;;2.80;1.00;;;;;;5013303;28;20165;-68
2022/01/05 07:41:48;;;;;;;4.50;2.30;;;2.80;1.00;;;;;;5013792;28;20184;-69
2022/01/05 07:44:13;;;;;;;19.63;2.90;;;2.90;1.00;;;;;;5014138;28;20188;-68
2022/01/05 07:46:39;;;;;;;2.43;2.23;;;2.90;1.00;;;;;;4996367;28;20721;-68
2022/01/05 07:49:05;;;;;;;3.90;2.00;;;2.80;1.00;;;;;;5013154;28;20662;-68
2022/01/05 07:51:31;;;;;;;2.35;2.25;;;2.80;1.00;;;;;;5013584;28;20204;-69
2022/01/05 07:53:57;;;;;;;7.90;2.92;;;2.80;1.00;;;;;;5013953;28;20710;-68
2022/01/05 07:56:23;;;;;;;2.30;2.10;;;2.80;1.00;;;;;;5013434;28;20196;-68
2022/01/05 07:58:50;;;;;;;1.80;1.70;;;2.80;1.00;;;;;;5013111;28;20481;-69
2022/01/05 08:01:18;;;;;;;2.15;2.05;;;2.70;1.00;;;;;;5013496;28;20998;-68
2022/01/05 08:03:45;;;;;;;2.13;2.03;;;2.80;1.00;;;;;;5014031;28;20521;-69
2022/01/05 08:06:10;;;;;;;2.17;2.07;;;2.80;1.00;;;;;;5013438;28;20633;-69
2022/01/05 08:08:36;;;;;;;2.30;2.10;;;2.80;1.00;;;;;;5012933;28;20465;-69
2022/01/05 08:11:02;;;;;;;2.07;1.97;;;2.90;1.00;;;;;;5013506;28;20204;-69
2022/01/05 08:13:27;;;;;;;1.93;1.80;;;2.90;1.00;;;;;;5013752;28;20168;-69
2022/01/05 08:15:53;;;;;;;2.07;1.97;;;2.90;1.00;;;;;;5013296;28;20191;-70
2022/01/05 08:18:19;;;;;;;2.23;1.80;;;2.90;1.00;;;;;;5013543;28;20192;-70
2022/01/05 08:20:46;;;;;;;2.37;2.27;;;2.80;1.00;;;;;;5012374;28;20442;-69
2022/01/05 08:23:20;;;;;;;2.10;2.00;;;2.90;1.00;;;;;;5013715;28;20410;-69
2022/01/05 08:25:46;;;;;;;3.93;2.03;;;2.90;1.00;;;;;;5013416;28;20459;-69
2022/01/05 08:28:12;;;;;;;7.07;2.00;;;2.90;1.00;;;;;;5015389;28;20430;-70
2022/01/05 08:30:39;;;;;;;2.10;2.00;;;2.90;1.00;;;;;;5016319;28;20927;-69
2022/01/05 08:33:05;;;;;;;2.05;1.90;;;2.80;1.00;;;;;;5017834;28;20160;-70
2022/01/05 08:35:34;;;;;;;1.70;1.60;;;2.80;1.00;;;;;;5017249;28;20528;-70
2022/01/05 08:38:00;;;;;;;2.20;1.70;;;2.80;1.00;;;;;;5017627;28;20455;-68
2022/01/05 08:40:26;;;;;;;2.80;2.60;;;2.70;1.00;;;;;;5015988;28;20196;-70
2022/01/05 08:42:53;;;;;;;2.40;2.20;;;2.70;1.00;;;;;;5017479;28;20906;-69
2022/01/05 08:45:20;;;;;;;2.37;1.70;;;2.70;1.00;;;;;;4999481;28;20407;-69
2022/01/05 08:47:48;;;;;;;4.57;3.30;;;2.70;1.00;;;;;;5017496;28;20408;-69
2022/01/05 08:50:18;;;;;;;2.55;2.35;;;2.70;1.00;;;;;;5016088;28;20442;-69
2022/01/05 08:52:44;;;;;;;1.97;1.87;;;2.60;1.00;;;;;;4998854;28;20184;-70
2022/01/05 08:55:11;;;;;;;3.07;2.87;;;2.60;1.00;;;;;;5016614;28;20509;-69
2022/01/05 08:57:38;;;;;;;2.30;2.20;;;2.60;1.00;;;;;;4999393;28;20862;-69
2022/01/05 09:00:06;;;;;;;2.20;2.10;;;2.60;1.00;;;;;;5015101;28;20459;-69
2022/01/05 09:02:31;;;;;;;2.27;2.10;;;2.70;1.00;;;;;;5002905;28;20868;-69
2022/01/05 09:04:57;;;;;;;2.40;2.30;;;2.70;1.00;;;;;;4979948;28;20454;-69
2022/01/05 09:07:23;;;;;;;2.97;2.77;;;2.70;1.00;;;;;;5010418;28;20537;-68
2022/01/05 09:09:48;;;;;;;3.47;2.37;;;2.70;1.00;;;;;;5015438;28;20277;-69
2022/01/05 09:12:14;;;;;;;2.70;2.50;;;2.70;1.00;;;;;;5016964;28;20179;-69
2022/01/05 09:14:40;;;;;;;3.53;2.50;;;2.80;1.00;;;;;;5016549;28;20188;-70
2022/01/05 09:17:07;;;;;;;2.20;2.10;;;2.80;1.00;;;;;;5016680;28;20322;-69
2022/01/05 09:19:33;;;;;;;5.13;2.50;;;2.80;1.00;;;;;;5015850;28;20396;-69
2022/01/05 09:22:00;;;;;;;2.30;2.20;;;2.90;1.00;;;;;;5016715;28;20431;-69
2022/01/05 09:24:25;;;;;;;2.60;2.40;;;3.00;1.00;;;;;;5016745;28;20421;-69
2022/01/05 09:26:52;;;;;;;5.03;2.60;;;3.00;1.00;;;;;;5016491;28;20884;-70
2022/01/05 09:29:18;;;;;;;2.57;1.83;;;3.10;1.00;;;;;;4981882;28;20495;-69
2022/01/05 09:31:44;;;;;;;2.17;2.07;;;3.10;1.00;;;;;;5016536;28;20474;-69
2022/01/05 09:34:11;;;;;;;1.83;1.73;;;3.10;1.00;;;;;;5016599;28;20422;-69
2022/01/05 09:36:46;;;;;;;3.43;2.73;;;3.20;1.00;;;;;;4998909;28;20443;-69
2022/01/05 09:41:56;;;;;;;2.27;2.17;;;3.30;1.00;;;;;;5016451;28;20405;-69
2022/01/05 09:44:26;;;;;;;2.23;2.03;;;3.40;1.00;;;;;;5016347;28;20482;-69
2022/01/05 09:47:21;;;;;;;4.33;2.60;;;3.40;1.00;;;;;;5016384;28;20168;-69
2022/01/05 09:49:50;;;;;;;2.70;2.50;;;3.50;1.00;;;;;;4981864;28;20425;-69
2022/01/05 09:52:15;;;;;;;2.90;2.70;;;3.50;1.00;;;;;;4998518;28;20796;-69
2022/01/05 09:54:44;;;;;;;10.13;2.60;;;3.50;1.00;;;;;;4998674;28;20408;-69
2022/01/05 09:57:10;;;;;;;2.27;2.17;;;3.70;1.00;;;;;;5016003;28;20560;-69
2022/01/05 09:59:37;;;;;;;2.27;2.17;;;3.70;1.00;;;;;;5015115;28;20907;-69
2022/01/05 10:02:04;;;;;;;4.37;3.13;;;3.70;1.00;;;;;;5016074;28;20414;-68
2022/01/05 10:04:30;;;;;;;2.07;1.97;;;3.70;1.00;;;;;;5015969;28;20387;-68
2022/01/05 10:06:56;;;;;;;9.47;3.30;;;3.70;1.00;;;;;;5015966;28;20469;-69
2022/01/05 10:09:22;;;;;;;2.20;2.10;;;3.80;1.00;;;;;;5014418;28;20896;-69
2022/01/05 10:11:48;;;;;;;2.70;1.63;;;3.80;1.00;;;;;;5015613;28;20450;-69
2022/01/05 10:14:15;;;;;;;1.83;1.73;;;3.80;1.00;;;;;;5015428;28;20431;-69
2022/01/05 10:16:41;;;;;;;2.80;1.77;;;3.80;1.00;;;;;;5015454;28;20784;-68
2022/01/05 10:19:08;;;;;;;2.07;1.93;;;3.90;1.00;;;;;;5008600;28;20427;-69
2022/01/05 10:21:39;;;;;;;2.33;2.13;;;4.00;1.00;;;;;;5014412;28;20443;-70
2022/01/05 10:24:07;;;;;;;4.70;2.00;;;4.10;1.00;;;;;;5015085;28;20411;-69
2022/01/05 10:26:36;;;;;;;1.80;1.70;;;4.10;1.00;;;;;;5015483;28;20798;-68
2022/01/05 10:29:13;;;;;;;1.87;1.40;;;4.10;1.00;;;;;;5013626;28;20553;-69
2022/01/05 10:31:40;;;;;;;1.73;1.63;;;4.10;1.00;;;;;;5014811;28;20449;-69
2022/01/05 10:34:19;;;;;;;1.70;1.60;;;4.10;1.00;;;;;;5013929;28;20423;-68
2022/01/05 10:36:48;;;;;;;1.70;1.60;;;4.00;1.00;;;;;;4988599;28;20455;-69
2022/01/05 10:39:14;;;;;;;1.90;1.70;;;4.10;1.00;;;;;;4994701;28;20789;-69
2022/01/05 10:41:42;;;;;;;1.50;1.40;;;4.10;1.00;;;;;;5006233;28;21112;-69
2022/01/05 10:44:16;;;;;;;3.93;1.97;;;4.00;1.00;;;;;;5014883;28;20462;-69
2022/01/05 10:46:55;;;;;;;1.50;1.40;;;4.00;1.00;;;;;;5014807;28;20507;-68
2022/01/05 10:49:31;;;;;;;1.73;1.63;;;4.10;1.00;;;;;;4995819;28;20501;-70
2022/01/05 10:52:18;;;;;;;1.97;1.87;;;4.20;1.00;;;;;;5013932;28;20474;-69
2022/01/05 10:54:44;;;;;;;2.00;1.90;;;4.00;1.00;;;;;;5014940;28;20899;-68
2022/01/05 10:57:12;;;;;;;1.90;1.80;;;3.90;1.00;;;;;;5014870;28;20570;-69
2022/01/05 10:59:42;;;;;;;2.10;2.00;;;3.70;1.00;;;;;;5013670;28;20543;-71
2022/01/05 11:02:29;;;;;;;1.50;1.40;;;3.70;1.00;;;;;;5014958;28;20484;-69
2022/01/05 11:05:09;;;;;;;2.50;1.90;;;3.60;1.00;;;;;;4977784;28;20466;-68
2022/01/05 11:07:39;;;;;;;1.60;1.50;;;3.60;1.00;;;;;;4995956;28;20436;-68
2022/01/05 11:10:07;;;;;;;3.30;1.53;;;3.60;1.00;;;;;;5013729;28;20468;-68
2022/01/05 11:12:49;;;;;;;3.47;1.70;;;3.60;1.00;;;;;;5014509;28;20796;-73
2022/01/05 11:15:19;;;;;;;11.43;1.50;;;3.60;1.00;;;;;;4995046;28;20396;-69
2022/01/05 11:18:08;;;;;;;1.80;1.70;;;3.70;1.00;;;;;;4995836;28;20452;-69
2022/01/05 11:20:43;;;;;;;1.80;1.70;;;3.70;1.00;;;;;;5013544;28;20465;-70
2022/01/05 11:23:09;;;;;;;2.33;1.87;;;3.80;1.00;;;;;;5014238;28;20457;-68
2022/01/05 11:25:37;;;;;;;1.60;1.50;;;3.80;1.00;;;;;;5014331;28;20400;-68
2022/01/05 11:28:04;;;;;;;2.17;1.60;;;3.70;1.00;;;;;;5014044;28;20505;-69
2022/01/05 11:30:31;;;;;;;1.63;1.53;;;3.70;1.00;;;;;;5013415;28;20426;-69
2022/01/05 11:32:57;;;;;;;2.97;1.67;;;3.70;1.00;;;;;;5013979;28;20791;-68
2022/01/05 11:35:23;;;;;;;1.80;1.70;;;3.70;1.00;;;;;;5014404;28;20406;-69
2022/01/05 11:37:49;;;;;;;1.47;1.37;;;3.70;1.00;;;;;;4996233;28;20533;-69
2022/01/05 11:40:17;;;;;;;1.63;1.40;;;3.60;1.00;;;;;;4995831;28;20459;-69
2022/01/05 11:42:48;;;;;;;1.60;1.50;;;3.60;1.00;;;;;;5013948;28;20899;-69
2022/01/05 11:45:36;;;;;;;1.60;1.50;;;3.60;1.00;;;;;;5014122;28;20398;-69
2022/01/05 11:48:13;;;;;;;1.43;1.33;;;3.60;1.00;;;;;;4996214;28;20424;-70
2022/01/05 11:50:48;;;;;;;1.70;1.60;;;3.70;1.00;;;;;;5013049;28;20450;-70
2022/01/05 11:53:15;;;;;;;1.70;1.60;;;3.90;1.00;;;;;;4994433;28;20904;-69
2022/01/05 11:55:59;;;;;;;2.23;2.03;;;4.00;1.00;;;;;;4994502;28;20404;-69
2022/01/05 11:58:26;;;;;;;2.67;2.57;;;3.90;1.00;;;;;;4994184;28;20776;-70
2022/01/05 12:01:17;;;;;;;1.80;1.70;;;4.00;1.00;;;;;;4997493;28;20431;-69
2022/01/05 12:03:57;;;;;;;1.50;1.40;;;4.00;1.00;;;;;;5013879;28;20391;-69
2022/01/05 12:06:43;;;;;;;2.30;2.20;;;4.00;1.00;;;;;;5013553;28;20501;-69
2022/01/05 12:09:27;;;;;;;1.63;1.53;;;4.00;1.00;;;;;;4999174;28;20415;-69
2022/01/05 12:11:54;;;;;;;2.40;2.30;;;4.00;1.00;;;;;;4994074;28;20416;-69
2022/01/05 12:14:19;;;;;;;2.20;2.00;;;4.00;1.00;;;;;;4994177;28;20516;-70
2022/01/05 12:17:06;;;;;;;1.90;1.80;;;4.00;1.00;;;;;;5013538;28;20549;-69
2022/01/05 12:19:34;;;;;;;3.13;1.70;;;4.00;1.00;;;;;;5012555;28;20534;-70
2022/01/05 12:22:14;;;;;;;2.07;1.60;;;4.00;1.00;;;;;;4996053;28;20423;-69
2022/01/05 12:25:03;;;;;;;1.80;1.70;;;4.10;1.00;;;;;;4995979;28;20415;-69
2022/01/05 12:27:52;;;;;;;1.90;1.80;;;4.10;1.00;;;;;;4995952;28;20573;-69
2022/01/05 12:30:18;;;;;;;1.60;1.50;;;4.10;1.00;;;;;;5012245;28;20931;-70
2022/01/05 12:32:46;;;;;;;2.60;1.70;;;4.20;1.00;;;;;;4995943;28;20418;-70
2022/01/05 12:35:15;;;;;;;1.43;1.33;;;4.20;1.00;;;;;;4995736;28;20422;-69
2022/01/05 12:37:56;;;;;;;3.93;1.77;;;4.30;1.00;;;;;;5013409;28;20458;-69
2022/01/05 12:40:34;;;;;;;1.70;1.60;;;4.30;1.00;;;;;;5012158;28;20439;-69
2022/01/05 12:43:06;;;;;;;1.60;1.50;;;4.40;1.00;;;;;;5013545;28;20395;-69
2022/01/05 12:45:50;;;;;;;1.70;1.60;;;4.40;1.00;;;;;;5013227;28;20430;-69
2022/01/05 12:48:31;;;;;;;1.70;1.60;;;4.40;1.00;;;;;;5013587;28;20403;-69
2022/01/05 12:51:20;;;;;;;1.40;1.30;;;4.50;1.00;;;;;;5012966;28;20505;-69
2022/01/05 12:54:00;;;;;;;2.03;1.63;;;4.50;1.00;;;;;;5013534;28;20399;-69
2022/01/05 12:56:33;;;;;;;1.80;1.70;;;4.50;1.00;;;;;;5012995;28;20552;-70
2022/01/05 12:59:00;;;;;;;3.23;1.50;;;4.50;1.00;;;;;;5012498;28;20398;-70
2022/01/05 13:01:27;;;;;;;2.47;2.27;;;4.50;1.00;;;;;;5012938;28;20502;-69
2022/01/05 13:03:57;;;;;;;2.20;2.10;;;4.50;1.00;;;;;;4995729;28;20771;-69
2022/01/05 13:06:26;;;;;;;2.37;1.93;;;4.50;1.00;;;;;;5013074;28;20427;-70
2022/01/05 13:09:05;;;;;;;4.30;1.30;;;4.60;1.00;;;;;;5012384;28;20411;-69
2022/01/05 13:11:45;;;;;;;5.53;1.80;;;4.70;1.00;;;;;;5012926;28;20450;-69
2022/01/05 13:14:18;;;;;;;1.50;1.40;;;4.70;1.00;;;;;;5014794;28;20827;-69